sensor_id;sensor_type;location;lat;lon;timestamp;pressure;altitude;pressure_sealevel;temperature;humidity
62791;BME280;48830;53.426;10.300;2023-03-01T00:00:49;103131.97;;;-0.93;100.00
62791;BME280;48830;53.426;10.300;2023-03-01T00:03:15;103141.78;;;-0.96;100.00
62791;BME280;48830;53.426;10.300;2023-03-01T00:05:44;103134.03;;;-0.97;100.00
62791;BME280;48830;53.426;10.300;2023-03-01T00:08:10;103138.75;;;-1.09;100.00
62791;BME280;48830;53.426;10.300;2023-03-01T00:10:36;103133.69;;;-1.09;100.00
62791;BME280;48830;53.426;10.300;2023-03-01T00:13:01;103124.66;;;-1.07;100.00
62791;BME280;48830;53.426;10.300;2023-03-01T00:15:27;103133.13;;;-1.07;100.00
62791;BME280;48830;53.426;10.300;2023-03-01T00:17:53;103120.47;;;-1.15;100.00
62791;BME280;48830;53.426;10.300;2023-03-01T00:20:18;103118.38;;;-1.19;100.00
62791;BME280;48830;53.426;10.300;2023-03-01T00:22:44;103122.72;;;-1.18;100.00
62791;BME280;48830;53.426;10.300;2023-03-01T00:25:09;103127.59;;;-1.20;100.00
62791;BME280;48830;53.426;10.300;2023-03-01T00:27:35;103126.22;;;-1.25;100.00
62791;BME280;48830;53.426;10.300;2023-03-01T00:30:00;103121.66;;;-1.20;100.00
62791;BME280;48830;53.426;10.300;2023-03-01T00:32:25;103121.78;;;-1.19;100.00
62791;BME280;48830;53.426;10.300;2023-03-01T00:34:51;103131.00;;;-1.19;100.00
62791;BME280;48830;53.426;10.300;2023-03-01T00:37:21;103132.47;;;-1.21;100.00
62791;BME280;48830;53.426;10.300;2023-03-01T00:39:47;103124.03;;;-1.22;100.00
62791;BME280;48830;53.426;10.300;2023-03-01T00:42:12;103124.31;;;-1.27;100.00
62791;BME280;48830;53.426;10.300;2023-03-01T00:44:38;103124.31;;;-1.27;100.00
62791;BME280;48830;53.426;10.300;2023-03-01T00:47:03;103127.25;;;-1.32;100.00
62791;BME280;48830;53.426;10.300;2023-03-01T00:49:30;103126.31;;;-1.41;100.00
62791;BME280;48830;53.426;10.300;2023-03-01T00:51:56;103118.94;;;-1.39;100.00
62791;BME280;48830;53.426;10.300;2023-03-01T00:54:22;103125.00;;;-1.37;100.00
62791;BME280;48830;53.426;10.300;2023-03-01T00:56:48;103122.81;;;-1.34;100.00
62791;BME280;48830;53.426;10.300;2023-03-01T00:59:13;103126.50;;;-1.39;100.00
62791;BME280;48830;53.426;10.300;2023-03-01T01:01:39;103123.09;;;-1.40;100.00
62791;BME280;48830;53.426;10.300;2023-03-01T01:04:07;103115.19;;;-1.43;100.00
62791;BME280;48830;53.426;10.300;2023-03-01T01:06:37;103113.84;;;-1.48;100.00
62791;BME280;48830;53.426;10.300;2023-03-01T01:09:05;103112.19;;;-1.47;100.00
62791;BME280;48830;53.426;10.300;2023-03-01T01:11:32;103109.81;;;-1.54;100.00
62791;BME280;48830;53.426;10.300;2023-03-01T01:13:58;103113.22;;;-1.54;100.00
62791;BME280;48830;53.426;10.300;2023-03-01T01:16:25;103116.44;;;-1.64;100.00
62791;BME280;48830;53.426;10.300;2023-03-01T01:18:52;103113.50;;;-1.60;100.00
62791;BME280;48830;53.426;10.300;2023-03-01T01:21:20;103107.25;;;-1.63;100.00
62791;BME280;48830;53.426;10.300;2023-03-01T01:23:47;103105.59;;;-1.63;100.00
62791;BME280;48830;53.426;10.300;2023-03-01T01:26:21;103105.13;;;-1.67;100.00
62791;BME280;48830;53.426;10.300;2023-03-01T01:28:49;103109.47;;;-1.66;100.00
62791;BME280;48830;53.426;10.300;2023-03-01T01:31:15;103103.53;;;-1.67;100.00
62791;BME280;48830;53.426;10.300;2023-03-01T01:33:42;103103.34;;;-1.68;100.00
62791;BME280;48830;53.426;10.300;2023-03-01T01:36:08;103101.00;;;-1.67;100.00
62791;BME280;48830;53.426;10.300;2023-03-01T01:38:35;103095.66;;;-1.70;100.00
62791;BME280;48830;53.426;10.300;2023-03-01T01:41:00;103088.22;;;-1.68;100.00
62791;BME280;48830;53.426;10.300;2023-03-01T01:43:29;103080.78;;;-1.75;100.00
62791;BME280;48830;53.426;10.300;2023-03-01T01:46:10;103076.16;;;-1.79;100.00
62791;BME280;48830;53.426;10.300;2023-03-01T01:49:05;103077.38;;;-1.76;100.00
62791;BME280;48830;53.426;10.300;2023-03-01T01:51:33;103074.06;;;-1.83;100.00
62791;BME280;48830;53.426;10.300;2023-03-01T01:54:10;103063.41;;;-1.81;100.00
62791;BME280;48830;53.426;10.300;2023-03-01T01:56:38;103066.69;;;-1.82;100.00
62791;BME280;48830;53.426;10.300;2023-03-01T01:59:06;103065.94;;;-1.81;100.00
62791;BME280;48830;53.426;10.300;2023-03-01T02:01:31;103063.56;;;-1.79;100.00
62791;BME280;48830;53.426;10.300;2023-03-01T02:03:57;103072.28;;;-1.85;100.00
62791;BME280;48830;53.426;10.300;2023-03-01T02:08:50;103070.91;;;-1.90;100.00
62791;BME280;48830;53.426;10.300;2023-03-01T02:11:18;103073.44;;;-1.90;100.00
62791;BME280;48830;53.426;10.300;2023-03-01T02:13:47;103074.94;;;-1.92;100.00
62791;BME280;48830;53.426;10.300;2023-03-01T02:16:15;103070.03;;;-1.90;100.00
62791;BME280;48830;53.426;10.300;2023-03-01T02:18:41;103064.22;;;-1.98;100.00
62791;BME280;48830;53.426;10.300;2023-03-01T02:23:41;103051.16;;;-2.02;100.00
62791;BME280;48830;53.426;10.300;2023-03-01T02:28:42;103046.22;;;-2.09;100.00
62791;BME280;48830;53.426;10.300;2023-03-01T02:31:11;103060.19;;;-2.04;100.00
62791;BME280;48830;53.426;10.300;2023-03-01T02:33:58;103051.44;;;-1.99;100.00
62791;BME280;48830;53.426;10.300;2023-03-01T02:36:32;103048.78;;;-2.01;100.00
62791;BME280;48830;53.426;10.300;2023-03-01T02:39:02;103047.75;;;-2.03;100.00
62791;BME280;48830;53.426;10.300;2023-03-01T02:41:31;103048.47;;;-2.04;100.00
62791;BME280;48830;53.426;10.300;2023-03-01T02:43:57;103044.59;;;-2.09;100.00
62791;BME280;48830;53.426;10.300;2023-03-01T02:46:25;103054.69;;;-2.09;100.00
62791;BME280;48830;53.426;10.300;2023-03-01T02:48:54;103048.75;;;-2.09;100.00
62791;BME280;48830;53.426;10.300;2023-03-01T02:56:49;103041.88;;;-2.19;100.00
62791;BME280;48830;53.426;10.300;2023-03-01T02:59:18;103044.53;;;-2.18;100.00
62791;BME280;48830;53.426;10.300;2023-03-01T03:01:44;103043.66;;;-2.18;100.00
62791;BME280;48830;53.426;10.300;2023-03-01T03:04:14;103037.56;;;-2.20;100.00
62791;BME280;48830;53.426;10.300;2023-03-01T03:06:45;103034.72;;;-2.23;100.00
62791;BME280;48830;53.426;10.300;2023-03-01T03:09:11;103033.25;;;-2.21;100.00
62791;BME280;48830;53.426;10.300;2023-03-01T03:11:37;103025.53;;;-2.23;100.00
62791;BME280;48830;53.426;10.300;2023-03-01T03:14:05;103026.44;;;-2.22;100.00
62791;BME280;48830;53.426;10.300;2023-03-01T03:16:31;103034.41;;;-2.26;100.00
62791;BME280;48830;53.426;10.300;2023-03-01T03:18:56;103036.22;;;-2.25;100.00
62791;BME280;48830;53.426;10.300;2023-03-01T03:21:33;103040.97;;;-2.20;100.00
62791;BME280;48830;53.426;10.300;2023-03-01T03:23:59;103037.72;;;-2.19;100.00
62791;BME280;48830;53.426;10.300;2023-03-01T03:26:24;103035.69;;;-2.14;100.00
62791;BME280;48830;53.426;10.300;2023-03-01T03:28:50;103040.59;;;-2.07;100.00
62791;BME280;48830;53.426;10.300;2023-03-01T03:31:15;103027.16;;;-1.99;100.00
62791;BME280;48830;53.426;10.300;2023-03-01T03:33:41;103018.13;;;-1.97;100.00
62791;BME280;48830;53.426;10.300;2023-03-01T03:36:07;103015.59;;;-1.97;100.00
62791;BME280;48830;53.426;10.300;2023-03-01T03:38:38;103006.41;;;-1.96;100.00
62791;BME280;48830;53.426;10.300;2023-03-01T03:41:07;103014.03;;;-1.88;100.00
62791;BME280;48830;53.426;10.300;2023-03-01T03:43:35;103020.41;;;-1.82;100.00
62791;BME280;48830;53.426;10.300;2023-03-01T03:46:02;103017.91;;;-1.82;100.00
62791;BME280;48830;53.426;10.300;2023-03-01T03:48:33;103014.22;;;-1.77;100.00
62791;BME280;48830;53.426;10.300;2023-03-01T03:50:59;103015.38;;;-1.74;100.00
62791;BME280;48830;53.426;10.300;2023-03-01T03:53:25;103017.34;;;-1.71;100.00
62791;BME280;48830;53.426;10.300;2023-03-01T03:55:52;103021.50;;;-1.63;100.00
62791;BME280;48830;53.426;10.300;2023-03-01T03:58:19;103019.31;;;-1.60;100.00
62791;BME280;48830;53.426;10.300;2023-03-01T04:00:46;103019.31;;;-1.51;100.00
62791;BME280;48830;53.426;10.300;2023-03-01T04:03:13;103026.16;;;-1.42;100.00
62791;BME280;48830;53.426;10.300;2023-03-01T04:05:40;103021.72;;;-1.36;100.00
62791;BME280;48830;53.426;10.300;2023-03-01T04:08:06;103018.19;;;-1.29;100.00
62791;BME280;48830;53.426;10.300;2023-03-01T04:10:37;103009.88;;;-1.19;100.00
62791;BME280;48830;53.426;10.300;2023-03-01T04:13:04;103008.69;;;-1.14;100.00
62791;BME280;48830;53.426;10.300;2023-03-01T04:15:31;103006.63;;;-1.10;100.00
62791;BME280;48830;53.426;10.300;2023-03-01T04:17:57;103000.41;;;-1.04;100.00
62791;BME280;48830;53.426;10.300;2023-03-01T04:20:26;103000.84;;;-1.00;100.00
62791;BME280;48830;53.426;10.300;2023-03-01T04:23:03;102996.81;;;-0.98;100.00
62791;BME280;48830;53.426;10.300;2023-03-01T04:25:55;102998.63;;;-0.88;100.00
62791;BME280;48830;53.426;10.300;2023-03-01T04:28:34;102990.59;;;-0.84;100.00
62791;BME280;48830;53.426;10.300;2023-03-01T04:31:03;102996.84;;;-0.81;100.00
62791;BME280;48830;53.426;10.300;2023-03-01T04:33:41;102990.56;;;-0.75;100.00
62791;BME280;48830;53.426;10.300;2023-03-01T04:36:07;102994.44;;;-0.70;100.00
62791;BME280;48830;53.426;10.300;2023-03-01T04:38:34;102990.00;;;-0.64;100.00
62791;BME280;48830;53.426;10.300;2023-03-01T04:41:01;102995.31;;;-0.61;100.00
62791;BME280;48830;53.426;10.300;2023-03-01T04:43:28;102982.13;;;-0.59;100.00
62791;BME280;48830;53.426;10.300;2023-03-01T04:45:54;102992.94;;;-0.51;100.00
62791;BME280;48830;53.426;10.300;2023-03-01T04:48:19;102993.97;;;-0.49;100.00
62791;BME280;48830;53.426;10.300;2023-03-01T04:50:44;102993.81;;;-0.42;100.00
62791;BME280;48830;53.426;10.300;2023-03-01T04:53:10;102984.28;;;-0.44;100.00
62791;BME280;48830;53.426;10.300;2023-03-01T04:55:35;102983.22;;;-0.38;100.00
62791;BME280;48830;53.426;10.300;2023-03-01T04:58:01;102991.41;;;-0.32;100.00
62791;BME280;48830;53.426;10.300;2023-03-01T05:00:26;102987.53;;;-0.28;100.00
62791;BME280;48830;53.426;10.300;2023-03-01T05:02:54;102975.31;;;-0.23;100.00
62791;BME280;48830;53.426;10.300;2023-03-01T05:05:22;102971.47;;;-0.20;100.00
62791;BME280;48830;53.426;10.300;2023-03-01T05:07:54;102983.03;;;-0.13;100.00
62791;BME280;48830;53.426;10.300;2023-03-01T05:10:20;102982.69;;;-0.08;100.00
62791;BME280;48830;53.426;10.300;2023-03-01T05:12:46;102974.66;;;-0.04;100.00
62791;BME280;48830;53.426;10.300;2023-03-01T05:15:11;102983.44;;;0.00;100.00
62791;BME280;48830;53.426;10.300;2023-03-01T05:17:37;102988.31;;;-0.02;100.00
62791;BME280;48830;53.426;10.300;2023-03-01T05:20:03;102991.75;;;-0.01;100.00
62791;BME280;48830;53.426;10.300;2023-03-01T05:22:33;102984.66;;;-0.14;100.00
62791;BME280;48830;53.426;10.300;2023-03-01T05:24:58;102994.56;;;0.02;100.00
62791;BME280;48830;53.426;10.300;2023-03-01T05:27:24;102986.53;;;0.06;100.00
62791;BME280;48830;53.426;10.300;2023-03-01T05:29:49;102987.75;;;-0.08;100.00
62791;BME280;48830;53.426;10.300;2023-03-01T05:32:15;102990.09;;;-0.01;100.00
62791;BME280;48830;53.426;10.300;2023-03-01T05:34:41;102996.16;;;0.10;100.00
62791;BME280;48830;53.426;10.300;2023-03-01T05:37:07;102988.75;;;0.03;100.00
62791;BME280;48830;53.426;10.300;2023-03-01T05:39:33;102986.97;;;0.02;100.00
62791;BME280;48830;53.426;10.300;2023-03-01T05:42:00;102994.38;;;0.09;100.00
62791;BME280;48830;53.426;10.300;2023-03-01T05:44:27;102992.72;;;0.18;100.00
62791;BME280;48830;53.426;10.300;2023-03-01T05:46:53;102986.63;;;0.16;100.00
62791;BME280;48830;53.426;10.300;2023-03-01T05:49:19;102984.13;;;0.08;100.00
62791;BME280;48830;53.426;10.300;2023-03-01T05:51:50;102990.94;;;0.17;100.00
62791;BME280;48830;53.426;10.300;2023-03-01T05:54:17;102988.25;;;0.16;100.00
62791;BME280;48830;53.426;10.300;2023-03-01T05:56:43;102980.25;;;0.11;100.00
62791;BME280;48830;53.426;10.300;2023-03-01T05:59:09;102980.97;;;0.10;100.00
62791;BME280;48830;53.426;10.300;2023-03-01T06:01:35;102972.03;;;0.22;100.00
62791;BME280;48830;53.426;10.300;2023-03-01T06:04:01;102970.72;;;0.17;100.00
62791;BME280;48830;53.426;10.300;2023-03-01T06:06:26;102980.97;;;0.10;100.00
62791;BME280;48830;53.426;10.300;2023-03-01T06:08:52;102982.59;;;0.18;100.00
62791;BME280;48830;53.426;10.300;2023-03-01T06:11:19;102979.88;;;0.25;100.00
62791;BME280;48830;53.426;10.300;2023-03-01T06:13:45;102977.91;;;0.32;100.00
62791;BME280;48830;53.426;10.300;2023-03-01T06:16:10;102973.88;;;0.06;100.00
62791;BME280;48830;53.426;10.300;2023-03-01T06:18:37;102971.84;;;0.21;100.00
62791;BME280;48830;53.426;10.300;2023-03-01T06:21:04;102981.47;;;0.34;100.00
62791;BME280;48830;53.426;10.300;2023-03-01T06:23:29;102967.09;;;0.24;100.00
62791;BME280;48830;53.426;10.300;2023-03-01T06:25:55;102966.00;;;0.31;100.00
62791;BME280;48830;53.426;10.300;2023-03-01T06:28:21;102967.63;;;0.39;100.00
62791;BME280;48830;53.426;10.300;2023-03-01T06:30:46;102960.44;;;0.43;100.00
62791;BME280;48830;53.426;10.300;2023-03-01T06:33:12;102968.75;;;0.42;100.00
62791;BME280;48830;53.426;10.300;2023-03-01T06:35:37;102965.34;;;0.42;100.00
62791;BME280;48830;53.426;10.300;2023-03-01T06:38:04;102964.31;;;0.40;100.00
62791;BME280;48830;53.426;10.300;2023-03-01T06:40:30;102967.13;;;0.43;100.00
62791;BME280;48830;53.426;10.300;2023-03-01T06:42:57;102969.16;;;0.56;100.00
62791;BME280;48830;53.426;10.300;2023-03-01T06:45:23;102964.97;;;0.56;100.00
62791;BME280;48830;53.426;10.300;2023-03-01T06:47:49;102966.41;;;0.63;100.00
62791;BME280;48830;53.426;10.300;2023-03-01T06:50:16;102968.00;;;0.71;100.00
62791;BME280;48830;53.426;10.300;2023-03-01T06:52:42;102968.00;;;0.71;100.00
62791;BME280;48830;53.426;10.300;2023-03-01T06:55:10;102968.13;;;0.72;100.00
62791;BME280;48830;53.426;10.300;2023-03-01T06:57:36;102974.50;;;0.77;100.00
62791;BME280;48830;53.426;10.300;2023-03-01T07:00:03;102974.75;;;0.81;100.00
62791;BME280;48830;53.426;10.300;2023-03-01T07:02:29;102970.72;;;0.83;100.00
62791;BME280;48830;53.426;10.300;2023-03-01T07:04:55;102970.19;;;0.76;100.00
62791;BME280;48830;53.426;10.300;2023-03-01T07:07:20;102976.94;;;0.67;100.00
62791;BME280;48830;53.426;10.300;2023-03-01T07:09:46;102979.69;;;0.60;100.00
62791;BME280;48830;53.426;10.300;2023-03-01T07:12:12;102971.59;;;0.64;100.00
62791;BME280;48830;53.426;10.300;2023-03-01T07:14:37;102972.19;;;0.70;100.00
62791;BME280;48830;53.426;10.300;2023-03-01T07:17:03;102967.78;;;0.78;100.00
62791;BME280;48830;53.426;10.300;2023-03-01T07:19:28;102961.56;;;0.74;100.00
62791;BME280;48830;53.426;10.300;2023-03-01T07:21:54;102965.88;;;0.75;100.00
62791;BME280;48830;53.426;10.300;2023-03-01T07:24:21;102962.59;;;0.76;100.00
62791;BME280;48830;53.426;10.300;2023-03-01T07:26:50;102970.66;;;0.72;100.00
62791;BME280;48830;53.426;10.300;2023-03-01T07:29:16;102980.03;;;0.73;100.00
62791;BME280;48830;53.426;10.300;2023-03-01T07:31:42;102986.13;;;0.75;100.00
62791;BME280;48830;53.426;10.300;2023-03-01T07:34:08;102969.31;;;0.76;100.00
62791;BME280;48830;53.426;10.300;2023-03-01T07:36:33;102969.91;;;0.73;100.00
62791;BME280;48830;53.426;10.300;2023-03-01T07:38:59;102964.91;;;0.84;100.00
62791;BME280;48830;53.426;10.300;2023-03-01T07:41:27;102962.69;;;0.97;100.00
62791;BME280;48830;53.426;10.300;2023-03-01T07:43:53;102963.69;;;0.89;100.00
62791;BME280;48830;53.426;10.300;2023-03-01T07:46:18;102962.41;;;1.02;100.00
62791;BME280;48830;53.426;10.300;2023-03-01T07:48:44;102962.09;;;0.99;100.00
62791;BME280;48830;53.426;10.300;2023-03-01T07:51:09;102962.28;;;1.11;100.00
62791;BME280;48830;53.426;10.300;2023-03-01T07:53:35;102959.34;;;1.07;100.00
62791;BME280;48830;53.426;10.300;2023-03-01T07:56:06;102961.94;;;1.17;100.00
62791;BME280;48830;53.426;10.300;2023-03-01T07:58:34;102971.78;;;1.33;100.00
62791;BME280;48830;53.426;10.300;2023-03-01T08:01:01;102976.91;;;1.43;100.00
62791;BME280;48830;53.426;10.300;2023-03-01T08:03:27;102975.78;;;1.49;100.00
62791;BME280;48830;53.426;10.300;2023-03-01T08:05:53;102973.78;;;1.55;100.00
62791;BME280;48830;53.426;10.300;2023-03-01T08:08:18;102976.72;;;1.60;100.00
62791;BME280;48830;53.426;10.300;2023-03-01T08:10:44;102987.69;;;1.50;100.00
62791;BME280;48830;53.426;10.300;2023-03-01T08:13:09;102995.03;;;1.47;100.00
62791;BME280;48830;53.426;10.300;2023-03-01T08:15:34;102988.84;;;1.54;100.00
62791;BME280;48830;53.426;10.300;2023-03-01T08:18:00;102988.63;;;1.61;100.00
62791;BME280;48830;53.426;10.300;2023-03-01T08:20:26;102994.25;;;1.67;100.00
62791;BME280;48830;53.426;10.300;2023-03-01T08:22:51;102986.69;;;1.88;100.00
62791;BME280;48830;53.426;10.300;2023-03-01T08:25:16;102983.31;;;2.07;100.00
62791;BME280;48830;53.426;10.300;2023-03-01T08:27:42;102979.44;;;2.21;100.00
62791;BME280;48830;53.426;10.300;2023-03-01T08:30:08;102975.25;;;2.32;100.00
62791;BME280;48830;53.426;10.300;2023-03-01T08:32:38;102967.25;;;2.48;100.00
62791;BME280;48830;53.426;10.300;2023-03-01T08:35:04;102972.31;;;2.68;100.00
62791;BME280;48830;53.426;10.300;2023-03-01T08:37:30;102970.75;;;3.01;100.00
62791;BME280;48830;53.426;10.300;2023-03-01T08:39:58;102971.56;;;3.22;100.00
62791;BME280;48830;53.426;10.300;2023-03-01T08:42:23;102959.81;;;3.44;99.99
62791;BME280;48830;53.426;10.300;2023-03-01T08:44:49;102964.09;;;3.55;97.11
62791;BME280;48830;53.426;10.300;2023-03-01T08:47:14;102970.16;;;3.89;94.13
62791;BME280;48830;53.426;10.300;2023-03-01T08:49:40;102956.75;;;4.47;90.92
62791;BME280;48830;53.426;10.300;2023-03-01T08:52:05;102967.78;;;5.05;89.27
62791;BME280;48830;53.426;10.300;2023-03-01T08:54:31;102965.78;;;4.78;86.65
62791;BME280;48830;53.426;10.300;2023-03-01T08:56:56;102967.13;;;5.08;87.15
62791;BME280;48830;53.426;10.300;2023-03-01T08:59:24;102962.31;;;5.59;84.33
62791;BME280;48830;53.426;10.300;2023-03-01T09:01:50;102961.69;;;5.98;83.50
62791;BME280;48830;53.426;10.300;2023-03-01T09:04:15;102964.50;;;5.78;84.41
62791;BME280;48830;53.426;10.300;2023-03-01T09:06:42;102949.94;;;5.89;83.01
62791;BME280;48830;53.426;10.300;2023-03-01T09:09:13;102950.50;;;6.60;81.73
62791;BME280;48830;53.426;10.300;2023-03-01T09:11:40;102958.78;;;7.08;79.28
62791;BME280;48830;53.426;10.300;2023-03-01T09:14:05;102957.81;;;7.33;77.68
62791;BME280;48830;53.426;10.300;2023-03-01T09:16:31;102965.47;;;7.46;77.42
62791;BME280;48830;53.426;10.300;2023-03-01T09:19:02;102964.56;;;7.46;75.07
62791;BME280;48830;53.426;10.300;2023-03-01T09:21:28;102968.34;;;7.79;74.58
62791;BME280;48830;53.426;10.300;2023-03-01T09:23:56;102967.34;;;8.33;71.18
62791;BME280;48830;53.426;10.300;2023-03-01T09:26:22;102960.97;;;8.69;70.13
62791;BME280;48830;53.426;10.300;2023-03-01T09:28:50;102956.13;;;9.19;66.91
62791;BME280;48830;53.426;10.300;2023-03-01T09:31:18;102958.84;;;9.85;64.77
62791;BME280;48830;53.426;10.300;2023-03-01T09:33:46;102959.22;;;13.95;52.98
62791;BME280;48830;53.426;10.300;2023-03-01T09:36:15;102956.66;;;16.12;46.18
62791;BME280;48830;53.426;10.300;2023-03-01T09:38:41;102955.78;;;17.53;42.70
62791;BME280;48830;53.426;10.300;2023-03-01T09:41:19;102965.34;;;18.41;40.15
62791;BME280;48830;53.426;10.300;2023-03-01T09:43:52;102970.38;;;19.37;37.88
62791;BME280;48830;53.426;10.300;2023-03-01T09:46:22;102972.94;;;16.38;41.11
62791;BME280;48830;53.426;10.300;2023-03-01T09:48:52;102977.81;;;13.39;46.76
62791;BME280;48830;53.426;10.300;2023-03-01T09:51:29;102982.88;;;12.74;50.03
62791;BME280;48830;53.426;10.300;2023-03-01T09:53:56;102980.34;;;13.38;49.28
62791;BME280;48830;53.426;10.300;2023-03-01T09:59:16;102977.13;;;16.66;43.77
62791;BME280;48830;53.426;10.300;2023-03-01T10:04:30;102973.19;;;20.27;38.31
62791;BME280;48830;53.426;10.300;2023-03-01T10:09:52;102968.81;;;20.25;37.74
62791;BME280;48830;53.426;10.300;2023-03-01T10:12:22;102972.88;;;20.88;36.56
62791;BME280;48830;53.426;10.300;2023-03-01T10:14:58;102955.97;;;21.88;35.91
62791;BME280;48830;53.426;10.300;2023-03-01T10:20:17;102966.22;;;21.33;37.21
62791;BME280;48830;53.426;10.300;2023-03-01T10:22:43;102963.53;;;20.22;37.49
62791;BME280;48830;53.426;10.300;2023-03-01T10:25:14;102960.38;;;19.71;39.56
62791;BME280;48830;53.426;10.300;2023-03-01T10:27:59;102964.09;;;20.80;38.14
62791;BME280;48830;53.426;10.300;2023-03-01T10:30:38;102956.97;;;22.62;35.07
62791;BME280;48830;53.426;10.300;2023-03-01T10:33:35;102964.66;;;23.66;34.62
62791;BME280;48830;53.426;10.300;2023-03-01T10:36:01;102953.41;;;25.56;32.40
62791;BME280;48830;53.426;10.300;2023-03-01T10:38:31;102950.63;;;26.82;30.48
62791;BME280;48830;53.426;10.300;2023-03-01T10:41:05;102953.41;;;24.74;32.03
62791;BME280;48830;53.426;10.300;2023-03-01T10:43:54;102947.22;;;23.48;33.77
62791;BME280;48830;53.426;10.300;2023-03-01T10:49:17;102938.16;;;24.07;34.00
62791;BME280;48830;53.426;10.300;2023-03-01T10:51:45;102941.91;;;23.65;33.97
62791;BME280;48830;53.426;10.300;2023-03-01T10:54:28;102947.69;;;24.20;33.71
62791;BME280;48830;53.426;10.300;2023-03-01T10:56:56;102942.16;;;24.61;33.15
62791;BME280;48830;53.426;10.300;2023-03-01T10:59:43;102948.63;;;24.10;33.30
62791;BME280;48830;53.426;10.300;2023-03-01T11:05:13;102934.91;;;21.56;36.00
62791;BME280;48830;53.426;10.300;2023-03-01T11:07:48;102934.69;;;19.35;39.32
62791;BME280;48830;53.426;10.300;2023-03-01T11:10:19;102937.06;;;19.18;39.94
62791;BME280;48830;53.426;10.300;2023-03-01T11:12:45;102923.81;;;18.00;40.96
62791;BME280;48830;53.426;10.300;2023-03-01T11:15:27;102933.09;;;18.34;41.07
62791;BME280;48830;53.426;10.300;2023-03-01T11:17:54;102922.78;;;18.92;40.42
62791;BME280;48830;53.426;10.300;2023-03-01T11:20:37;102921.31;;;19.76;39.71
62791;BME280;48830;53.426;10.300;2023-03-01T11:23:07;102929.25;;;24.26;33.63
62791;BME280;48830;53.426;10.300;2023-03-01T11:25:42;102919.06;;;23.80;33.71
62791;BME280;48830;53.426;10.300;2023-03-01T11:28:13;102923.78;;;22.48;34.43
62791;BME280;48830;53.426;10.300;2023-03-01T11:30:41;102917.28;;;21.19;36.52
62791;BME280;48830;53.426;10.300;2023-03-01T11:33:37;102925.84;;;26.89;30.96
62791;BME280;48830;53.426;10.300;2023-03-01T11:38:40;102923.88;;;30.36;26.79
62791;BME280;48830;53.426;10.300;2023-03-01T11:41:18;102913.78;;;30.72;26.60
62791;BME280;48830;53.426;10.300;2023-03-01T11:44:01;102905.84;;;31.43;25.77
62791;BME280;48830;53.426;10.300;2023-03-01T12:03:33;102886.56;;;31.83;26.46
62791;BME280;48830;53.426;10.300;2023-03-01T12:06:32;102884.44;;;31.00;26.38
62791;BME280;48830;53.426;10.300;2023-03-01T12:09:26;102886.47;;;31.62;26.43
62791;BME280;48830;53.426;10.300;2023-03-01T12:12:27;102875.81;;;31.86;26.51
62791;BME280;48830;53.426;10.300;2023-03-01T12:20:47;102866.63;;;31.49;25.92
62791;BME280;48830;53.426;10.300;2023-03-01T12:39:49;102840.72;;;29.84;27.83
62791;BME280;48830;53.426;10.300;2023-03-01T12:48:55;102816.75;;;28.72;28.71
62791;BME280;48830;53.426;10.300;2023-03-01T12:51:28;102819.06;;;28.51;29.08
62791;BME280;48830;53.426;10.300;2023-03-01T12:53:57;102805.66;;;27.18;30.64
62791;BME280;48830;53.426;10.300;2023-03-01T12:56:27;102801.00;;;26.42;30.89
62791;BME280;48830;53.426;10.300;2023-03-01T13:04:26;102797.00;;;27.10;30.74
62791;BME280;48830;53.426;10.300;2023-03-01T13:07:39;102800.44;;;26.72;31.07
62791;BME280;48830;53.426;10.300;2023-03-01T13:13:21;102794.94;;;27.98;30.32
62791;BME280;48830;53.426;10.300;2023-03-01T13:15:47;102791.81;;;27.81;29.84
62791;BME280;48830;53.426;10.300;2023-03-01T13:23:23;102783.31;;;24.76;33.34
62791;BME280;48830;53.426;10.300;2023-03-01T13:38:55;102767.25;;;20.96;37.90
62791;BME280;48830;53.426;10.300;2023-03-01T13:46:45;102760.25;;;20.92;39.30
62791;BME280;48830;53.426;10.300;2023-03-01T13:49:14;102762.59;;;20.44;39.47
62791;BME280;48830;53.426;10.300;2023-03-01T13:51:42;102764.81;;;19.86;40.87
62791;BME280;48830;53.426;10.300;2023-03-01T13:54:12;102761.50;;;19.18;40.81
62791;BME280;48830;53.426;10.300;2023-03-01T13:56:39;102757.28;;;19.29;42.01
62791;BME280;48830;53.426;10.300;2023-03-01T13:59:19;102756.75;;;19.60;41.81
62791;BME280;48830;53.426;10.300;2023-03-01T14:01:54;102756.75;;;19.59;41.70
62791;BME280;48830;53.426;10.300;2023-03-01T14:06:47;102748.59;;;19.30;41.97
62791;BME280;48830;53.426;10.300;2023-03-01T14:09:19;102738.81;;;18.45;43.46
62791;BME280;48830;53.426;10.300;2023-03-01T14:14:34;102741.03;;;18.16;43.76
62791;BME280;48830;53.426;10.300;2023-03-01T14:17:43;102738.19;;;18.02;43.71
62791;BME280;48830;53.426;10.300;2023-03-01T14:20:22;102734.06;;;17.64;44.07
62791;BME280;48830;53.426;10.300;2023-03-01T14:22:52;102734.72;;;18.00;44.01
62791;BME280;48830;53.426;10.300;2023-03-01T14:25:22;102723.19;;;18.42;42.94
62791;BME280;48830;53.426;10.300;2023-03-01T14:30:33;102719.28;;;19.54;40.62
62791;BME280;48830;53.426;10.300;2023-03-01T14:33:02;102712.59;;;19.85;40.18
62791;BME280;48830;53.426;10.300;2023-03-01T14:35:30;102714.59;;;20.23;39.54
62791;BME280;48830;53.426;10.300;2023-03-01T14:37:56;102712.50;;;19.73;40.98
62791;BME280;48830;53.426;10.300;2023-03-01T14:40:26;102711.66;;;19.77;40.02
62791;BME280;48830;53.426;10.300;2023-03-01T14:42:53;102713.63;;;20.07;40.17